createdAt,value
2023-03-20T00:02:15.646Z,22.33
2023-03-20T00:04:42.586Z,23.90
2023-03-20T00:07:12.490Z,19.08
2023-03-20T00:09:39.807Z,21.92
2023-03-20T00:12:06.837Z,20.75
2023-03-20T00:14:34.674Z,22.80
2023-03-20T00:17:02.038Z,21.52
2023-03-20T00:19:29.558Z,18.70
2023-03-20T00:21:57.167Z,19.42
2023-03-20T00:24:25.487Z,16.17
2023-03-20T00:26:54.081Z,20.42
2023-03-20T00:29:26.781Z,16.75
2023-03-20T00:31:54.679Z,17.30
2023-03-20T00:34:27.093Z,17.50
2023-03-20T00:36:54.575Z,13.25
2023-03-20T00:39:21.953Z,12.00
2023-03-20T00:41:54.747Z,15.35
2023-03-20T00:44:30.318Z,13.27
2023-03-20T00:47:02.639Z,15.45
2023-03-20T00:49:32.525Z,15.38
2023-03-20T00:52:01.188Z,11.73
2023-03-20T00:54:28.778Z,12.63
2023-03-20T00:57:00.299Z,10.75
2023-03-20T00:59:31.778Z,10.38
2023-03-20T01:02:00.544Z,14.15
2023-03-20T01:04:34.454Z,9.85
2023-03-20T01:07:01.612Z,12.73
2023-03-20T01:09:28.525Z,14.00
2023-03-20T01:11:55.355Z,12.73
2023-03-20T01:14:22.197Z,13.30
2023-03-20T01:16:49.019Z,14.57
2023-03-20T01:19:16.908Z,10.88
2023-03-20T01:21:43.888Z,14.25
2023-03-20T01:24:10.927Z,11.40
2023-03-20T01:26:43.320Z,11.20
2023-03-20T01:29:22.740Z,13.20
2023-03-20T01:31:50.472Z,15.43
2023-03-20T01:34:17.928Z,12.13
2023-03-20T01:37:03.233Z,14.00
2023-03-20T01:39:34.021Z,14.50
2023-03-20T01:42:02.278Z,13.68
2023-03-20T01:44:31.675Z,17.38
2023-03-20T01:47:00.055Z,25.60
2023-03-20T01:49:28.225Z,22.20
2023-03-20T01:51:57.043Z,22.60
2023-03-20T01:54:37.845Z,18.65
2023-03-20T01:57:08.215Z,16.52
2023-03-20T01:59:46.786Z,19.92
2023-03-20T02:02:27.039Z,15.98
2023-03-20T02:04:58.725Z,21.58
2023-03-20T02:07:25.975Z,15.63
2023-03-20T02:09:53.351Z,24.08
2023-03-20T02:12:20.858Z,28.25
2023-03-20T02:14:48.662Z,27.70
2023-03-20T02:17:16.254Z,23.65
2023-03-20T02:20:10.564Z,20.55
2023-03-20T02:23:14.889Z,24.38
2023-03-20T02:28:42.516Z,23.35
2023-03-20T02:31:24.563Z,27.02
2023-03-20T02:34:29.616Z,30.88
2023-03-20T02:37:46.445Z,20.95
2023-03-20T02:40:35.745Z,27.90
2023-03-20T02:43:25.213Z,31.25
2023-03-20T02:46:12.564Z,23.85
2023-03-20T02:48:58.361Z,26.00
2023-03-20T02:51:41.634Z,25.48
2023-03-20T02:54:26.422Z,27.55
2023-03-20T02:57:05.873Z,26.40
2023-03-20T02:59:43.148Z,26.88
2023-03-20T03:02:17.429Z,35.60
2023-03-20T03:04:58.189Z,24.02
2023-03-20T03:07:29.114Z,25.13
2023-03-20T03:10:06.885Z,18.45
2023-03-20T03:12:38.881Z,27.52
2023-03-20T03:15:16.881Z,25.20
2023-03-20T03:17:47.234Z,25.02
2023-03-20T03:20:23.779Z,27.23
2023-03-20T03:22:50.940Z,26.88
2023-03-20T03:25:18.110Z,23.98
2023-03-20T03:27:49.112Z,21.70
2023-03-20T03:30:26.033Z,20.80
2023-03-20T03:33:17.102Z,19.92
2023-03-20T03:35:44.209Z,32.08
2023-03-20T03:38:16.810Z,27.35
2023-03-20T03:41:01.659Z,24.52
2023-03-20T03:43:56.746Z,24.23
2023-03-20T03:46:37.813Z,31.67
2023-03-20T03:49:08.301Z,34.10
2023-03-20T03:51:40.032Z,34.63
2023-03-20T03:54:11.225Z,39.13
2023-03-20T03:56:40.343Z,25.55
2023-03-20T03:59:13.933Z,30.05
2023-03-20T04:01:44.312Z,29.42
2023-03-20T04:04:14.674Z,32.33
2023-03-20T04:06:42.335Z,30.70
2023-03-20T04:09:09.537Z,19.98
2023-03-20T04:11:36.338Z,24.42
2023-03-20T04:14:03.174Z,26.67
2023-03-20T04:16:30.945Z,41.47
2023-03-20T04:18:57.871Z,29.98
2023-03-20T04:21:24.822Z,24.63
2023-03-20T04:23:51.892Z,20.95
2023-03-20T04:26:18.683Z,24.85
2023-03-20T04:28:45.531Z,34.70
2023-03-20T04:31:12.545Z,23.65
2023-03-20T04:33:39.403Z,19.73
2023-03-20T04:36:06.847Z,30.90
2023-03-20T04:38:33.702Z,33.38
2023-03-20T04:41:00.476Z,19.80
2023-03-20T04:43:27.327Z,21.50
2023-03-20T04:45:54.241Z,17.95
2023-03-20T04:48:21.265Z,24.17
2023-03-20T04:50:48.698Z,23.88
2023-03-20T04:53:16.196Z,23.27
2023-03-20T04:55:43.081Z,27.48
2023-03-20T04:58:10.096Z,19.40
2023-03-20T05:00:36.990Z,24.73
2023-03-20T05:03:03.841Z,26.10
2023-03-20T05:05:30.736Z,30.48
2023-03-20T05:07:57.525Z,21.90
2023-03-20T05:10:24.280Z,24.42
2023-03-20T05:12:51.576Z,23.60
2023-03-20T05:15:18.376Z,24.70
2023-03-20T05:17:45.146Z,20.50
2023-03-20T05:20:12.068Z,20.80
2023-03-20T05:22:38.872Z,17.60
2023-03-20T05:25:06.137Z,19.48
2023-03-20T05:27:33.219Z,16.73
2023-03-20T05:30:00.295Z,15.40
2023-03-20T05:32:27.303Z,16.42
2023-03-20T05:34:54.059Z,17.02
2023-03-20T05:37:20.822Z,16.92
2023-03-20T05:39:47.589Z,17.27
2023-03-20T05:42:14.335Z,17.48
2023-03-20T05:44:41.195Z,17.42
2023-03-20T05:47:08.150Z,16.60
2023-03-20T05:49:34.891Z,15.60
2023-03-20T05:52:01.634Z,14.45
2023-03-20T05:54:28.641Z,16.17
2023-03-20T05:56:57.846Z,17.17
2023-03-20T05:59:25.807Z,17.85
2023-03-20T06:01:52.642Z,17.88
2023-03-20T06:04:19.422Z,17.77
2023-03-20T06:06:46.306Z,15.88
2023-03-20T06:09:13.058Z,19.83
2023-03-20T06:11:39.823Z,16.67
2023-03-20T06:14:06.704Z,16.83
2023-03-20T06:16:34.164Z,20.60
2023-03-20T06:19:01.027Z,19.60
2023-03-20T06:21:28.099Z,18.58
2023-03-20T06:23:54.952Z,18.20
2023-03-20T06:26:22.033Z,21.85
2023-03-20T06:28:49.245Z,20.85
2023-03-20T06:31:16.473Z,22.08
2023-03-20T06:33:44.371Z,24.38
2023-03-20T06:36:11.671Z,21.00
2023-03-20T06:38:38.418Z,22.08
2023-03-20T06:41:05.422Z,25.35
2023-03-20T06:43:32.340Z,19.60
2023-03-20T06:45:59.162Z,20.58
2023-03-20T06:48:26.121Z,20.33
2023-03-20T06:50:53.080Z,19.30
2023-03-20T06:53:20.213Z,16.65
2023-03-20T06:55:48.642Z,19.15
2023-03-20T06:58:16.083Z,17.92
2023-03-20T07:00:43.393Z,16.33
2023-03-20T07:03:11.577Z,18.75
2023-03-20T07:05:39.209Z,17.10
2023-03-20T07:08:07.597Z,20.40
2023-03-20T07:10:35.694Z,18.67
2023-03-20T07:13:02.902Z,19.05
2023-03-20T07:15:30.137Z,17.73
2023-03-20T07:17:57.244Z,18.38
2023-03-20T07:20:24.005Z,21.35
2023-03-20T07:22:50.926Z,18.63
2023-03-20T07:25:20.586Z,17.35
2023-03-20T07:27:52.974Z,20.08
2023-03-20T07:30:20.826Z,20.13
2023-03-20T07:32:48.870Z,20.33
2023-03-20T07:35:16.106Z,19.52
2023-03-20T07:37:43.128Z,23.55
2023-03-20T07:40:11.123Z,16.05
2023-03-20T07:42:37.988Z,20.75
2023-03-20T07:45:05.601Z,19.77
2023-03-20T07:47:32.903Z,18.70
2023-03-20T07:49:59.676Z,16.92
2023-03-20T07:52:27.133Z,17.13
2023-03-20T07:54:55.138Z,15.95
2023-03-20T07:57:21.929Z,17.08
2023-03-20T07:59:48.830Z,13.30
2023-03-20T08:02:17.234Z,14.10
2023-03-20T08:04:45.244Z,14.93
2023-03-20T08:07:12.696Z,14.75
2023-03-20T08:09:40.934Z,16.48
2023-03-20T08:12:07.881Z,15.07
2023-03-20T08:14:34.906Z,16.88
2023-03-20T08:17:13.612Z,15.90
2023-03-20T08:19:41.470Z,16.65
2023-03-20T08:22:08.214Z,15.77
2023-03-20T08:24:35.351Z,18.40
2023-03-20T08:27:03.394Z,20.77
2023-03-20T08:29:30.436Z,17.90
2023-03-20T08:31:57.773Z,17.95
2023-03-20T08:34:24.578Z,17.55
2023-03-20T08:36:52.630Z,14.60
2023-03-20T08:39:19.362Z,14.55
2023-03-20T08:41:46.206Z,13.20
2023-03-20T08:44:13.725Z,14.95
2023-03-20T08:46:40.536Z,14.70
2023-03-20T08:49:07.572Z,12.55
2023-03-20T08:51:34.320Z,14.20
2023-03-20T08:54:01.611Z,13.77
2023-03-20T08:56:29.137Z,13.75
2023-03-20T08:58:56.477Z,11.25
2023-03-20T09:01:23.375Z,11.60
2023-03-20T09:03:50.409Z,12.75
2023-03-20T09:06:17.190Z,11.48
2023-03-20T09:08:44.004Z,13.23
2023-03-20T09:11:10.773Z,11.90
2023-03-20T09:13:37.587Z,9.82
2023-03-20T09:16:06.492Z,12.43
2023-03-20T09:18:33.269Z,12.13
2023-03-20T09:21:02.008Z,10.77
2023-03-20T09:23:29.498Z,9.98
2023-03-20T09:25:56.406Z,9.43
2023-03-20T09:28:25.400Z,8.73
2023-03-20T09:30:58.397Z,9.18
2023-03-20T09:33:26.993Z,10.05
2023-03-20T09:35:53.773Z,9.43
2023-03-20T09:38:22.437Z,7.63
2023-03-20T09:41:02.258Z,7.43
2023-03-20T09:43:53.295Z,7.18
2023-03-20T09:46:28.137Z,7.55
2023-03-20T09:49:36.258Z,7.22
2023-03-20T09:52:24.604Z,7.55
2023-03-20T09:54:56.285Z,7.28
2023-03-20T09:57:42.329Z,6.63
2023-03-20T10:00:16.734Z,6.53
2023-03-20T10:03:01.394Z,7.10
2023-03-20T10:05:36.014Z,7.40
2023-03-20T10:08:06.777Z,6.57
2023-03-20T10:10:45.221Z,7.85
2023-03-20T10:13:32.232Z,6.45
2023-03-20T10:16:26.490Z,6.88
2023-03-20T10:19:16.331Z,6.55
2023-03-20T10:21:47.263Z,7.05
2023-03-20T10:24:30.545Z,6.22
2023-03-20T10:27:04.390Z,6.13
2023-03-20T10:29:45.409Z,6.10
2023-03-20T10:32:42.729Z,6.53
2023-03-20T10:35:17.564Z,5.70
2023-03-20T10:37:53.141Z,5.20
2023-03-20T10:40:31.861Z,8.23
2023-03-20T10:43:32.940Z,5.25
2023-03-20T10:46:17.053Z,7.13
2023-03-20T10:48:52.278Z,6.50
2023-03-20T10:51:22.461Z,5.22
2023-03-20T10:53:53.838Z,6.32
2023-03-20T10:56:32.282Z,5.43
2023-03-20T10:59:10.592Z,5.63
2023-03-20T11:01:37.791Z,5.53
2023-03-20T11:04:06.208Z,5.65
2023-03-20T11:06:49.431Z,8.07
2023-03-20T11:09:20.649Z,4.75
2023-03-20T11:11:50.322Z,4.47
2023-03-20T11:14:23.647Z,4.45
2023-03-20T11:16:54.163Z,4.60
2023-03-20T11:19:23.894Z,6.28
2023-03-20T11:21:56.177Z,4.70
2023-03-20T11:24:41.949Z,4.70
2023-03-20T11:27:13.948Z,5.30
2023-03-20T11:29:45.584Z,5.80
2023-03-20T11:32:15.609Z,5.85
2023-03-20T11:34:43.437Z,4.72
2023-03-20T11:37:29.417Z,4.15
2023-03-20T11:40:17.468Z,4.13
2023-03-20T11:43:02.868Z,4.85
2023-03-20T11:45:39.707Z,3.65
2023-03-20T11:48:14.588Z,3.22
2023-03-20T11:51:02.657Z,2.83
2023-03-20T11:53:31.770Z,3.40
2023-03-20T11:56:12.282Z,4.70
2023-03-20T11:59:12.750Z,2.75
2023-03-20T12:01:48.779Z,3.13
2023-03-20T12:04:37.476Z,2.45
2023-03-20T12:07:22.332Z,2.88
2023-03-20T12:09:52.416Z,2.88
2023-03-20T12:12:31.762Z,4.32
2023-03-20T12:15:17.882Z,3.13
2023-03-20T12:17:54.089Z,2.35
2023-03-20T12:20:27.567Z,4.65
2023-03-20T12:25:59.680Z,3.15
2023-03-20T12:29:16.900Z,3.10
2023-03-20T12:31:56.024Z,2.60
2023-03-20T12:34:33.268Z,3.40
2023-03-20T12:37:00.445Z,3.20
2023-03-20T12:39:34.344Z,3.20
2023-03-20T12:42:19.621Z,2.38
2023-03-20T12:45:09.342Z,2.95
2023-03-20T12:47:57.664Z,3.25
2023-03-20T12:50:36.224Z,2.58
2023-03-20T12:53:36.320Z,2.78
2023-03-20T12:56:29.673Z,2.75
2023-03-20T12:59:22.437Z,2.35
2023-03-20T13:02:01.339Z,3.20
2023-03-20T13:04:31.430Z,2.42
2023-03-20T13:07:02.784Z,2.85
2023-03-20T13:09:53.987Z,2.50
2023-03-20T13:12:27.254Z,2.13
2023-03-20T13:15:14.627Z,2.53
2023-03-20T13:17:56.792Z,2.47
2023-03-20T13:21:01.729Z,2.75
2023-03-20T13:23:39.758Z,2.67
2023-03-20T13:26:21.306Z,2.08
2023-03-20T13:28:58.269Z,2.95
2023-03-20T13:31:45.492Z,2.80
2023-03-20T13:35:01.578Z,2.58
2023-03-20T13:37:41.419Z,2.70
2023-03-20T13:40:17.182Z,1.45
2023-03-20T13:43:25.485Z,2.70
2023-03-20T13:46:08.784Z,1.67
2023-03-20T13:48:39.238Z,1.60
2023-03-20T13:51:22.010Z,1.25
2023-03-20T13:54:05.710Z,1.20
2023-03-20T13:56:44.216Z,1.80
2023-03-20T13:59:29.856Z,1.33
2023-03-20T14:02:18.582Z,2.25
2023-03-20T14:04:47.637Z,2.33
2023-03-20T14:07:36.012Z,1.67
2023-03-20T14:10:23.242Z,2.22
2023-03-20T14:12:57.434Z,1.25
2023-03-20T14:17:53.848Z,1.08
2023-03-20T14:20:24.375Z,2.55
2023-03-20T14:22:51.399Z,2.67
2023-03-20T14:25:21.130Z,1.73
2023-03-20T14:28:24.476Z,1.85
2023-03-20T14:30:51.412Z,2.90
2023-03-20T14:33:18.233Z,1.85
2023-03-20T14:35:49.439Z,1.45
2023-03-20T14:39:21.163Z,1.33
2023-03-20T14:42:25.624Z,1.33
2023-03-20T14:45:02.351Z,1.33
2023-03-20T14:47:42.985Z,1.92
2023-03-20T14:50:14.660Z,1.20
2023-03-20T14:52:58.865Z,1.08
2023-03-20T14:58:43.936Z,1.38
2023-03-20T15:01:27.765Z,1.60
2023-03-20T15:06:28.817Z,1.80
2023-03-20T15:09:06.880Z,2.08
2023-03-20T15:11:34.863Z,1.75
2023-03-20T15:14:04.706Z,3.22
2023-03-20T15:16:34.297Z,1.75
2023-03-20T15:19:01.467Z,2.25
2023-03-20T15:21:41.153Z,2.45
2023-03-20T15:24:16.478Z,1.40
2023-03-20T15:26:45.365Z,1.88
2023-03-20T15:29:18.657Z,1.48
2023-03-20T15:31:46.168Z,1.65
2023-03-20T15:34:20.937Z,2.85
2023-03-20T15:36:48.464Z,2.47
2023-03-20T15:39:17.306Z,1.90
2023-03-20T15:41:51.505Z,1.88
2023-03-20T15:44:20.639Z,2.08
2023-03-20T15:47:11.809Z,1.98
2023-03-20T15:49:41.099Z,3.22
2023-03-20T15:52:40.995Z,2.63
2023-03-20T15:55:15.307Z,1.38
2023-03-20T15:57:45.194Z,1.90
2023-03-20T16:00:20.136Z,2.03
2023-03-20T16:02:49.008Z,1.95
2023-03-20T16:05:17.833Z,1.60
2023-03-20T16:07:44.602Z,2.90
2023-03-20T16:10:20.857Z,2.33
2023-03-20T16:12:50.388Z,1.58
2023-03-20T16:15:19.227Z,1.98
2023-03-20T16:17:47.606Z,2.25
2023-03-20T16:20:16.864Z,2.58
2023-03-20T16:22:45.154Z,3.30
2023-03-20T16:25:18.396Z,1.85
2023-03-20T16:27:49.491Z,3.35
2023-03-20T16:30:23.597Z,3.00
2023-03-20T16:32:57.283Z,2.03
2023-03-20T16:35:32.074Z,2.95
2023-03-20T16:38:04.122Z,1.85
2023-03-20T16:40:36.799Z,2.47
2023-03-20T16:43:13.437Z,1.90
2023-03-20T16:45:44.370Z,2.22
2023-03-20T16:48:11.362Z,1.85
2023-03-20T16:50:40.352Z,3.50
2023-03-20T16:53:14.292Z,2.00
2023-03-20T16:55:46.740Z,3.53
2023-03-20T16:58:23.628Z,2.80
2023-03-20T17:01:27.326Z,2.47
2023-03-20T17:04:11.502Z,5.75
2023-03-20T17:06:46.108Z,3.53
2023-03-20T17:09:13.214Z,4.47
2023-03-20T17:11:45.796Z,3.00
2023-03-20T17:14:12.677Z,3.83
2023-03-20T17:16:40.261Z,2.80
2023-03-20T17:19:18.962Z,2.35
2023-03-20T17:21:46.318Z,3.25
2023-03-20T17:24:14.559Z,2.22
2023-03-20T17:26:45.267Z,1.95
2023-03-20T17:29:12.676Z,2.97
2023-03-20T17:31:39.798Z,3.35
2023-03-20T17:34:06.751Z,2.83
2023-03-20T17:36:34.687Z,3.25
2023-03-20T17:39:02.480Z,3.85
2023-03-20T17:41:29.467Z,3.53
2023-03-20T17:43:56.921Z,2.85
2023-03-20T17:46:31.440Z,3.88
2023-03-20T17:49:01.747Z,2.85
2023-03-20T17:51:29.286Z,3.10
2023-03-20T17:53:57.830Z,2.78
2023-03-20T17:56:29.987Z,2.53
2023-03-20T17:58:57.669Z,5.22
2023-03-20T18:01:24.751Z,3.45
2023-03-20T18:03:51.552Z,3.72
2023-03-20T18:06:29.730Z,4.43
2023-03-20T18:08:58.010Z,4.47
2023-03-20T18:11:25.334Z,2.58
2023-03-20T18:13:52.253Z,2.80
2023-03-20T18:16:24.955Z,4.53
2023-03-20T18:18:53.392Z,3.50
2023-03-20T18:21:20.583Z,6.07
2023-03-20T18:23:47.330Z,3.60
2023-03-20T18:26:26.214Z,3.58
2023-03-20T18:28:55.197Z,5.30
2023-03-20T18:31:22.338Z,3.78
2023-03-20T18:33:51.273Z,4.10
2023-03-20T18:36:23.504Z,4.25
2023-03-20T18:38:51.534Z,7.47
2023-03-20T18:41:18.425Z,5.88
2023-03-20T18:43:46.621Z,4.93
2023-03-20T18:46:18.049Z,5.13
2023-03-20T18:48:46.134Z,3.92
2023-03-20T18:51:13.714Z,3.90
2023-03-20T18:53:41.446Z,3.97
2023-03-20T18:56:27.036Z,3.92
2023-03-20T18:58:54.058Z,3.63
2023-03-20T19:01:21.447Z,5.30
2023-03-20T19:03:48.855Z,3.55
2023-03-20T19:06:21.735Z,4.60
2023-03-20T19:08:49.365Z,5.53
2023-03-20T19:11:19.606Z,4.30
2023-03-20T19:13:51.083Z,6.22
2023-03-20T19:16:20.933Z,5.10
2023-03-20T19:18:49.859Z,4.22
2023-03-20T19:21:17.376Z,6.50
2023-03-20T19:23:44.565Z,4.35
2023-03-20T19:26:19.510Z,4.95
2023-03-20T19:28:47.512Z,5.55
2023-03-20T19:31:14.470Z,6.35
2023-03-20T19:33:41.461Z,6.18
2023-03-20T19:36:36.853Z,5.72
2023-03-20T19:39:06.495Z,7.53
2023-03-20T19:41:34.163Z,7.35
2023-03-20T19:44:01.591Z,6.38
2023-03-20T19:46:39.701Z,7.47
2023-03-20T19:49:19.697Z,6.95
2023-03-20T19:51:47.856Z,7.65
2023-03-20T19:54:14.812Z,7.38
2023-03-20T19:56:41.598Z,7.65
2023-03-20T19:59:08.505Z,7.55
2023-03-20T20:01:36.216Z,7.28
2023-03-20T20:04:04.030Z,9.57
2023-03-20T20:06:32.805Z,7.20
2023-03-20T20:09:01.510Z,7.28
2023-03-20T20:11:29.045Z,6.88
2023-03-20T20:14:14.650Z,6.95
2023-03-20T20:16:42.977Z,7.13
2023-03-20T20:19:10.494Z,8.75
2023-03-20T20:24:24.268Z,9.05
2023-03-20T20:27:14.529Z,15.13
2023-03-20T20:29:42.634Z,12.88
2023-03-20T20:32:09.577Z,7.53
2023-03-20T20:40:16.612Z,9.27
2023-03-20T20:42:47.490Z,10.23
2023-03-20T20:45:15.404Z,10.38
2023-03-20T20:47:44.763Z,9.65
2023-03-20T20:50:17.080Z,13.93
2023-03-20T20:52:44.267Z,11.32
2023-03-20T20:55:28.100Z,13.45
2023-03-20T20:57:55.861Z,12.98
2023-03-20T21:00:37.157Z,14.40
2023-03-20T21:03:08.940Z,19.63
2023-03-20T21:05:37.760Z,21.77
2023-03-20T21:08:04.775Z,12.30
2023-03-20T21:10:31.592Z,12.93
2023-03-20T21:12:59.892Z,9.30
2023-03-20T21:15:27.505Z,9.00
2023-03-20T21:18:01.244Z,10.65
2023-03-20T21:20:33.320Z,10.88
2023-03-20T21:23:00.447Z,12.73
2023-03-20T21:25:47.021Z,11.68
2023-03-20T21:28:14.429Z,12.98
2023-03-20T21:30:51.072Z,12.40
2023-03-20T21:33:29.735Z,9.18
2023-03-20T21:35:56.525Z,8.13
2023-03-20T21:38:58.645Z,8.07
2023-03-20T21:41:11.368Z,6.68
2023-03-20T21:43:39.428Z,6.70
2023-03-20T21:46:41.186Z,7.95
2023-03-20T21:55:05.261Z,5.80
2023-03-20T21:58:16.837Z,5.40
2023-03-20T22:02:49.082Z,6.45
2023-03-20T22:05:52.748Z,6.75
2023-03-20T22:09:04.842Z,7.30
2023-03-20T22:11:38.421Z,6.57
2023-03-20T22:22:37.879Z,6.45
2023-03-20T22:25:39.158Z,6.68
2023-03-20T22:28:06.815Z,7.43
2023-03-20T22:33:58.724Z,7.53
2023-03-20T22:36:46.463Z,7.50
2023-03-20T22:42:18.517Z,7.68
2023-03-20T22:47:01.965Z,8.35
2023-03-20T22:49:28.863Z,8.35
2023-03-20T22:54:42.481Z,6.40
2023-03-20T22:57:09.279Z,8.50
2023-03-20T22:59:36.906Z,11.35
2023-03-20T23:02:03.727Z,7.75
2023-03-20T23:04:30.815Z,6.63
2023-03-20T23:06:57.548Z,7.80
2023-03-20T23:09:24.372Z,8.55
2023-03-20T23:11:51.057Z,8.00
2023-03-20T23:14:21.591Z,7.53
2023-03-20T23:16:49.177Z,9.32
2023-03-20T23:19:16.346Z,7.85
2023-03-20T23:21:43.203Z,8.25
2023-03-20T23:24:10.193Z,9.18
2023-03-20T23:26:36.960Z,7.32
2023-03-20T23:29:03.914Z,9.88
2023-03-20T23:31:30.704Z,9.10
2023-03-20T23:33:58.169Z,8.43
2023-03-20T23:36:35.944Z,9.07
2023-03-20T23:39:08.088Z,8.88
2023-03-20T23:42:29.300Z,11.48
2023-03-20T23:44:22.157Z,8.70
2023-03-20T23:46:49.120Z,10.48
2023-03-20T23:49:16.635Z,8.43
2023-03-20T23:51:44.293Z,11.48
2023-03-20T23:54:11.931Z,9.13
2023-03-20T23:56:39.277Z,8.88
2023-03-20T23:59:18.625Z,7.35
